sensor_id;sensor_type;location;lat;lon;timestamp;pressure;altitude;pressure_sealevel;temperature;humidity
14293;BME280;62290;59.420;17.842;2023-10-13T00:00:47;100142.53;;;23.73;28.60
14293;BME280;62290;59.420;17.842;2023-10-13T00:03:16;100139.84;;;23.73;28.68
14293;BME280;62290;59.420;17.842;2023-10-13T00:05:45;100132.78;;;23.72;28.68
14293;BME280;62290;59.420;17.842;2023-10-13T00:08:14;100131.94;;;23.72;28.79
14293;BME280;62290;59.420;17.842;2023-10-13T00:10:42;100126.00;;;23.68;28.68
14293;BME280;62290;59.420;17.842;2023-10-13T00:13:12;100121.47;;;23.69;28.77
14293;BME280;62290;59.420;17.842;2023-10-13T00:15:43;100117.94;;;23.68;28.75
14293;BME280;62290;59.420;17.842;2023-10-13T00:18:24;100118.09;;;23.67;28.83
14293;BME280;62290;59.420;17.842;2023-10-13T00:20:54;100122.75;;;23.65;28.72
14293;BME280;62290;59.420;17.842;2023-10-13T00:23:23;100124.63;;;23.64;28.86
14293;BME280;62290;59.420;17.842;2023-10-13T00:25:54;100123.88;;;23.62;28.84
14293;BME280;62290;59.420;17.842;2023-10-13T00:28:27;100126.75;;;23.61;28.78
14293;BME280;62290;59.420;17.842;2023-10-13T00:31:02;100131.44;;;23.59;28.85
14293;BME280;62290;59.420;17.842;2023-10-13T00:33:38;100136.94;;;23.57;28.92
14293;BME280;62290;59.420;17.842;2023-10-13T00:36:08;100129.88;;;23.56;28.59
14293;BME280;62290;59.420;17.842;2023-10-13T00:38:43;100142.31;;;23.57;28.78
14293;BME280;62290;59.420;17.842;2023-10-13T00:41:15;100150.25;;;23.59;28.62
14293;BME280;62290;59.420;17.842;2023-10-13T00:43:47;100127.94;;;23.49;28.46
14293;BME280;62290;59.420;17.842;2023-10-13T00:46:31;100147.41;;;23.60;28.45
14293;BME280;62290;59.420;17.842;2023-10-13T00:49:03;100142.72;;;23.62;28.54
14293;BME280;62290;59.420;17.842;2023-10-13T00:51:31;100151.66;;;23.63;28.38
14293;BME280;62290;59.420;17.842;2023-10-13T00:54:03;100150.50;;;23.65;28.28
14293;BME280;62290;59.420;17.842;2023-10-13T00:56:37;100152.03;;;23.68;28.18
14293;BME280;62290;59.420;17.842;2023-10-13T00:59:09;100158.16;;;23.70;28.29
14293;BME280;62290;59.420;17.842;2023-10-13T01:01:37;100164.34;;;23.70;28.38
14293;BME280;62290;59.420;17.842;2023-10-13T01:04:08;100169.59;;;23.72;28.24
14293;BME280;62290;59.420;17.842;2023-10-13T01:06:39;100173.97;;;23.73;28.28
14293;BME280;62290;59.420;17.842;2023-10-13T01:09:08;100175.69;;;23.74;28.38
14293;BME280;62290;59.420;17.842;2023-10-13T01:11:40;100178.53;;;23.72;28.36
14293;BME280;62290;59.420;17.842;2023-10-13T01:14:11;100168.75;;;23.71;28.41
14293;BME280;62290;59.420;17.842;2023-10-13T01:16:38;100172.44;;;23.70;28.48
14293;BME280;62290;59.420;17.842;2023-10-13T01:19:10;100173.28;;;23.71;28.60
14293;BME280;62290;59.420;17.842;2023-10-13T01:21:39;100177.81;;;23.70;28.63
14293;BME280;62290;59.420;17.842;2023-10-13T01:24:10;100171.59;;;23.70;28.62
14293;BME280;62290;59.420;17.842;2023-10-13T01:26:38;100173.44;;;23.69;28.49
14293;BME280;62290;59.420;17.842;2023-10-13T01:29:07;100177.00;;;23.70;28.55
14293;BME280;62290;59.420;17.842;2023-10-13T01:31:41;100183.34;;;23.69;28.67
14293;BME280;62290;59.420;17.842;2023-10-13T01:34:14;100181.63;;;23.68;28.62
14293;BME280;62290;59.420;17.842;2023-10-13T01:36:47;100188.84;;;23.67;28.66
14293;BME280;62290;59.420;17.842;2023-10-13T01:39:20;100190.44;;;23.70;28.49
14293;BME280;62290;59.420;17.842;2023-10-13T01:41:48;100179.81;;;23.68;28.48
14293;BME280;62290;59.420;17.842;2023-10-13T01:44:22;100179.81;;;23.68;28.48
14293;BME280;62290;59.420;17.842;2023-10-13T01:46:50;100175.13;;;23.70;28.38
14293;BME280;62290;59.420;17.842;2023-10-13T01:49:18;100178.53;;;23.72;28.29
14293;BME280;62290;59.420;17.842;2023-10-13T01:51:49;100184.44;;;23.76;28.29
14293;BME280;62290;59.420;17.842;2023-10-13T01:54:16;100187.84;;;23.78;28.31
14293;BME280;62290;59.420;17.842;2023-10-13T01:56:46;100182.31;;;23.79;28.39
14293;BME280;62290;59.420;17.842;2023-10-13T01:59:16;100185.00;;;23.79;28.15
14293;BME280;62290;59.420;17.842;2023-10-13T02:01:45;100189.38;;;23.80;28.19
14293;BME280;62290;59.420;17.842;2023-10-13T02:04:12;100197.31;;;23.82;28.25
14293;BME280;62290;59.420;17.842;2023-10-13T02:06:41;100188.22;;;23.83;28.21
14293;BME280;62290;59.420;17.842;2023-10-13T02:09:09;100189.81;;;23.85;28.14
14293;BME280;62290;59.420;17.842;2023-10-13T02:11:40;100198.56;;;23.87;28.13
14293;BME280;62290;59.420;17.842;2023-10-13T02:14:09;100197.56;;;23.88;27.95
14293;BME280;62290;59.420;17.842;2023-10-13T02:16:39;100206.50;;;23.89;28.01
14293;BME280;62290;59.420;17.842;2023-10-13T02:19:07;100202.94;;;23.88;28.23
14293;BME280;62290;59.420;17.842;2023-10-13T02:21:35;100213.41;;;23.91;27.95
14293;BME280;62290;59.420;17.842;2023-10-13T02:24:06;100205.22;;;23.93;27.99
14293;BME280;62290;59.420;17.842;2023-10-13T02:26:40;100211.41;;;23.93;27.89
14293;BME280;62290;59.420;17.842;2023-10-13T02:29:10;100200.53;;;23.95;27.92
14293;BME280;62290;59.420;17.842;2023-10-13T02:31:41;100208.59;;;23.95;27.96
14293;BME280;62290;59.420;17.842;2023-10-13T02:34:09;100206.59;;;23.97;27.77
14293;BME280;62290;59.420;17.842;2023-10-13T02:36:39;100204.75;;;23.98;27.87
14293;BME280;62290;59.420;17.842;2023-10-13T02:39:14;100187.75;;;23.97;27.77
14293;BME280;62290;59.420;17.842;2023-10-13T02:41:43;100183.06;;;23.99;27.86
14293;BME280;62290;59.420;17.842;2023-10-13T02:44:16;100194.56;;;24.01;27.77
14293;BME280;62290;59.420;17.842;2023-10-13T02:46:54;100192.69;;;24.02;27.60
14293;BME280;62290;59.420;17.842;2023-10-13T02:49:23;100199.78;;;24.03;27.73
14293;BME280;62290;59.420;17.842;2023-10-13T02:51:53;100198.63;;;24.05;27.68
14293;BME280;62290;59.420;17.842;2023-10-13T02:54:22;100195.09;;;24.05;27.67
14293;BME280;62290;59.420;17.842;2023-10-13T02:56:57;100179.13;;;23.93;27.62
14293;BME280;62290;59.420;17.842;2023-10-13T02:59:26;100196.78;;;24.06;27.60
14293;BME280;62290;59.420;17.842;2023-10-13T03:02:06;100196.94;;;24.04;27.89
14293;BME280;62290;59.420;17.842;2023-10-13T03:04:46;100201.78;;;24.01;27.93
14293;BME280;62290;59.420;17.842;2023-10-13T03:07:14;100185.63;;;24.01;27.79
14293;BME280;62290;59.420;17.842;2023-10-13T03:09:50;100166.72;;;23.83;27.84
14293;BME280;62290;59.420;17.842;2023-10-13T03:12:19;100179.69;;;23.97;28.00
14293;BME280;62290;59.420;17.842;2023-10-13T03:14:48;100181.69;;;23.95;27.81
14293;BME280;62290;59.420;17.842;2023-10-13T03:17:16;100172.34;;;23.89;27.94
14293;BME280;62290;59.420;17.842;2023-10-13T03:19:46;100185.34;;;23.94;27.89
14293;BME280;62290;59.420;17.842;2023-10-13T03:22:18;100189.06;;;23.93;27.92
14293;BME280;62290;59.420;17.842;2023-10-13T03:24:45;100198.97;;;23.92;28.03
14293;BME280;62290;59.420;17.842;2023-10-13T03:27:15;100198.13;;;23.92;27.97
14293;BME280;62290;59.420;17.842;2023-10-13T03:29:45;100194.44;;;23.93;27.93
14293;BME280;62290;59.420;17.842;2023-10-13T03:32:16;100182.84;;;23.92;27.74
14293;BME280;62290;59.420;17.842;2023-10-13T03:34:45;100184.38;;;23.95;27.66
14293;BME280;62290;59.420;17.842;2023-10-13T03:37:38;100183.22;;;23.98;27.70
14293;BME280;62290;59.420;17.842;2023-10-13T03:40:08;100168.97;;;23.87;27.30
14293;BME280;62290;59.420;17.842;2023-10-13T03:42:58;100162.06;;;23.85;27.49
14293;BME280;62290;59.420;17.842;2023-10-13T03:45:32;100198.94;;;24.02;27.45
14293;BME280;62290;59.420;17.842;2023-10-13T03:48:08;100196.94;;;24.04;27.47
14293;BME280;62290;59.420;17.842;2023-10-13T03:50:56;100196.78;;;24.06;27.29
14293;BME280;62290;59.420;17.842;2023-10-13T03:53:35;100198.47;;;24.07;27.42
14293;BME280;62290;59.420;17.842;2023-10-13T03:56:06;100210.00;;;24.09;27.30
14293;BME280;62290;59.420;17.842;2023-10-13T03:58:39;100208.13;;;24.09;27.34
14293;BME280;62290;59.420;17.842;2023-10-13T04:01:12;100210.69;;;24.11;27.36
14293;BME280;62290;59.420;17.842;2023-10-13T04:03:43;100212.34;;;24.12;27.07
14293;BME280;62290;59.420;17.842;2023-10-13T04:06:24;100214.91;;;24.13;27.24
14293;BME280;62290;59.420;17.842;2023-10-13T04:09:14;100216.75;;;24.13;27.29
14293;BME280;62290;59.420;17.842;2023-10-13T04:12:01;100210.53;;;24.12;27.24
14293;BME280;62290;59.420;17.842;2023-10-13T04:14:47;100208.00;;;24.11;27.37
14293;BME280;62290;59.420;17.842;2023-10-13T04:17:35;100199.22;;;24.09;27.38
14293;BME280;62290;59.420;17.842;2023-10-13T04:20:09;100197.47;;;24.08;27.38
14293;BME280;62290;59.420;17.842;2023-10-13T04:22:53;100197.78;;;24.05;27.58
14293;BME280;62290;59.420;17.842;2023-10-13T04:25:38;100200.63;;;24.03;27.22
14293;BME280;62290;59.420;17.842;2023-10-13T04:28:19;100210.53;;;24.03;27.49
14293;BME280;62290;59.420;17.842;2023-10-13T04:31:04;100214.22;;;24.02;27.49
14293;BME280;62290;59.420;17.842;2023-10-13T04:33:51;100210.72;;;24.01;27.37
14293;BME280;62290;59.420;17.842;2023-10-13T04:36:21;100211.53;;;24.02;27.46
14293;BME280;62290;59.420;17.842;2023-10-13T04:39:03;100202.75;;;24.00;27.36
14293;BME280;62290;59.420;17.842;2023-10-13T04:41:37;100202.75;;;24.00;27.33
14293;BME280;62290;59.420;17.842;2023-10-13T04:44:13;100203.44;;;24.02;27.25
14293;BME280;62290;59.420;17.842;2023-10-13T04:47:00;100177.44;;;23.92;27.06
14293;BME280;62290;59.420;17.842;2023-10-13T04:49:45;100194.09;;;24.06;26.99
14293;BME280;62290;59.420;17.842;2023-10-13T04:52:28;100199.91;;;24.11;27.24
14293;BME280;62290;59.420;17.842;2023-10-13T04:55:28;100198.78;;;24.13;26.94
14293;BME280;62290;59.420;17.842;2023-10-13T04:58:26;100189.72;;;24.14;26.94
14293;BME280;62290;59.420;17.842;2023-10-13T05:01:08;100193.94;;;24.17;27.05
14293;BME280;62290;59.420;17.842;2023-10-13T05:04:11;100187.53;;;24.18;27.04
14293;BME280;62290;59.420;17.842;2023-10-13T05:06:49;100194.47;;;24.20;26.98
14293;BME280;62290;59.420;17.842;2023-10-13T05:09:36;100175.41;;;24.14;27.14
14293;BME280;62290;59.420;17.842;2023-10-13T05:12:21;100181.56;;;24.24;27.15
14293;BME280;62290;59.420;17.842;2023-10-13T05:15:06;100178.72;;;24.25;27.04
14293;BME280;62290;59.420;17.842;2023-10-13T05:17:52;100187.47;;;24.27;27.08
14293;BME280;62290;59.420;17.842;2023-10-13T05:20:37;100177.44;;;24.29;27.02
14293;BME280;62290;59.420;17.842;2023-10-13T05:23:23;100164.25;;;24.26;27.09
14293;BME280;62290;59.420;17.842;2023-10-13T05:26:15;100169.78;;;24.25;27.45
14293;BME280;62290;59.420;17.842;2023-10-13T05:28:57;100164.84;;;24.20;27.55
14293;BME280;62290;59.420;17.842;2023-10-13T05:31:54;100163.19;;;24.19;27.58
14293;BME280;62290;59.420;17.842;2023-10-13T05:34:39;100157.94;;;24.18;27.48
14293;BME280;62290;59.420;17.842;2023-10-13T05:37:24;100170.53;;;24.17;27.43
14293;BME280;62290;59.420;17.842;2023-10-13T05:40:10;100163.47;;;24.16;27.37
14293;BME280;62290;59.420;17.842;2023-10-13T05:42:57;100170.41;;;24.19;27.61
14293;BME280;62290;59.420;17.842;2023-10-13T05:45:43;100169.72;;;24.17;27.48
14293;BME280;62290;59.420;17.842;2023-10-13T05:48:24;100174.06;;;24.18;27.44
14293;BME280;62290;59.420;17.842;2023-10-13T05:51:09;100178.78;;;24.16;27.60
14293;BME280;62290;59.420;17.842;2023-10-13T05:53:55;100179.75;;;24.15;27.70
14293;BME280;62290;59.420;17.842;2023-10-13T05:56:50;100183.31;;;24.15;27.54
14293;BME280;62290;59.420;17.842;2023-10-13T05:59:52;100180.47;;;24.17;27.59
14293;BME280;62290;59.420;17.842;2023-10-13T06:02:37;100181.00;;;24.20;27.19
14293;BME280;62290;59.420;17.842;2023-10-13T06:05:23;100185.25;;;24.23;27.18
14293;BME280;62290;59.420;17.842;2023-10-13T06:08:08;100184.94;;;24.26;27.27
14293;BME280;62290;59.420;17.842;2023-10-13T06:11:00;100181.97;;;24.29;27.05
14293;BME280;62290;59.420;17.842;2023-10-13T06:13:47;100187.19;;;24.30;27.40
14293;BME280;62290;59.420;17.842;2023-10-13T06:16:33;100182.50;;;24.32;27.45
14293;BME280;62290;59.420;17.842;2023-10-13T06:19:19;100182.66;;;24.31;27.93
14293;BME280;62290;59.420;17.842;2023-10-13T06:22:04;100185.72;;;24.36;28.00
14293;BME280;62290;59.420;17.842;2023-10-13T06:24:49;100193.50;;;24.39;27.61
14293;BME280;62290;59.420;17.842;2023-10-13T06:27:31;100195.91;;;24.42;27.47
14293;BME280;62290;59.420;17.842;2023-10-13T06:30:17;100190.34;;;24.43;27.53
14293;BME280;62290;59.420;17.842;2023-10-13T06:32:47;100194.59;;;24.46;27.36
14293;BME280;62290;59.420;17.842;2023-10-13T06:35:17;100195.44;;;24.46;27.22
14293;BME280;62290;59.420;17.842;2023-10-13T06:37:50;100191.91;;;24.46;27.47
14293;BME280;62290;59.420;17.842;2023-10-13T06:40:18;100186.81;;;24.43;27.53
14293;BME280;62290;59.420;17.842;2023-10-13T06:43:00;100194.38;;;24.39;27.97
14293;BME280;62290;59.420;17.842;2023-10-13T06:45:45;100205.59;;;24.35;28.02
14293;BME280;62290;59.420;17.842;2023-10-13T06:48:19;100198.69;;;24.32;28.34
14293;BME280;62290;59.420;17.842;2023-10-13T06:50:50;100202.50;;;24.30;28.50
14293;BME280;62290;59.420;17.842;2023-10-13T06:53:19;100199.81;;;24.30;28.62
14293;BME280;62290;59.420;17.842;2023-10-13T06:55:47;100203.63;;;24.27;28.25
14293;BME280;62290;59.420;17.842;2023-10-13T06:58:19;100200.13;;;24.27;28.64
14293;BME280;62290;59.420;17.842;2023-10-13T07:00:51;100207.34;;;24.26;28.42
14293;BME280;62290;59.420;17.842;2023-10-13T07:03:26;100211.88;;;24.26;28.47
14293;BME280;62290;59.420;17.842;2023-10-13T07:05:54;100223.78;;;24.23;28.49
14293;BME280;62290;59.420;17.842;2023-10-13T07:08:26;100218.88;;;24.19;28.66
14293;BME280;62290;59.420;17.842;2023-10-13T07:10:57;100227.19;;;24.25;28.59
14293;BME280;62290;59.420;17.842;2023-10-13T07:13:32;100218.69;;;24.30;28.20
14293;BME280;62290;59.420;17.842;2023-10-13T07:16:06;100213.53;;;24.36;28.46
14293;BME280;62290;59.420;17.842;2023-10-13T07:18:56;100219.00;;;24.44;28.13
14293;BME280;62290;59.420;17.842;2023-10-13T07:21:32;100204.38;;;24.47;28.24
14293;BME280;62290;59.420;17.842;2023-10-13T07:24:00;100202.75;;;24.54;28.07
14293;BME280;62290;59.420;17.842;2023-10-13T07:26:35;100197.75;;;24.59;28.26
14293;BME280;62290;59.420;17.842;2023-10-13T07:29:10;100208.63;;;24.67;28.22
14293;BME280;62290;59.420;17.842;2023-10-13T07:31:38;100207.19;;;24.73;27.77
14293;BME280;62290;59.420;17.842;2023-10-13T07:34:13;100208.59;;;24.77;27.88
14293;BME280;62290;59.420;17.842;2023-10-13T07:36:54;100208.16;;;24.81;27.84
14293;BME280;62290;59.420;17.842;2023-10-13T07:39:27;100213.22;;;24.84;27.76
14293;BME280;62290;59.420;17.842;2023-10-13T07:42:00;100212.06;;;24.87;27.83
14293;BME280;62290;59.420;17.842;2023-10-13T07:44:31;100213.44;;;24.91;27.75
14293;BME280;62290;59.420;17.842;2023-10-13T07:47:00;100203.53;;;24.91;27.76
14293;BME280;62290;59.420;17.842;2023-10-13T07:49:35;100200.81;;;24.91;27.96
14293;BME280;62290;59.420;17.842;2023-10-13T07:52:07;100192.06;;;24.89;27.89
14293;BME280;62290;59.420;17.842;2023-10-13T07:54:55;100198.59;;;24.87;27.71
14293;BME280;62290;59.420;17.842;2023-10-13T07:57:26;100203.13;;;24.86;27.58
14293;BME280;62290;59.420;17.842;2023-10-13T07:59:56;100209.50;;;24.85;28.06
14293;BME280;62290;59.420;17.842;2023-10-13T08:02:37;100220.28;;;24.85;27.70
14293;BME280;62290;59.420;17.842;2023-10-13T08:05:19;100217.59;;;24.85;27.91
14293;BME280;62290;59.420;17.842;2023-10-13T08:07:56;100214.22;;;24.83;28.08
14293;BME280;62290;59.420;17.842;2023-10-13T08:10:24;100211.53;;;24.83;28.05
14293;BME280;62290;59.420;17.842;2023-10-13T08:12:56;100193.50;;;24.84;28.02
14293;BME280;62290;59.420;17.842;2023-10-13T08:15:25;100191.66;;;24.84;28.27
14293;BME280;62290;59.420;17.842;2023-10-13T08:17:59;100189.78;;;24.85;28.19
14293;BME280;62290;59.420;17.842;2023-10-13T08:20:33;100193.59;;;24.92;27.99
14293;BME280;62290;59.420;17.842;2023-10-13T08:23:07;100190.41;;;24.96;27.60
14293;BME280;62290;59.420;17.842;2023-10-13T08:25:41;100198.72;;;25.03;27.87
14293;BME280;62290;59.420;17.842;2023-10-13T08:28:34;100198.28;;;25.07;27.53
14293;BME280;62290;59.420;17.842;2023-10-13T08:31:24;100193.25;;;25.12;27.93
14293;BME280;62290;59.420;17.842;2023-10-13T08:33:53;100188.38;;;25.16;27.73
14293;BME280;62290;59.420;17.842;2023-10-13T08:36:34;100183.00;;;25.16;27.33
14293;BME280;62290;59.420;17.842;2023-10-13T08:39:05;100187.63;;;25.24;27.74
14293;BME280;62290;59.420;17.842;2023-10-13T08:42:04;100186.28;;;25.28;27.53
14293;BME280;62290;59.420;17.842;2023-10-13T08:44:44;100179.44;;;25.33;27.40
14293;BME280;62290;59.420;17.842;2023-10-13T08:47:18;100182.97;;;25.34;27.26
14293;BME280;62290;59.420;17.842;2023-10-13T08:49:52;100179.13;;;25.36;27.14
14293;BME280;62290;59.420;17.842;2023-10-13T08:52:39;100179.81;;;25.38;27.25
14293;BME280;62290;59.420;17.842;2023-10-13T08:55:16;100187.03;;;25.38;27.42
14293;BME280;62290;59.420;17.842;2023-10-13T08:58:06;100178.25;;;25.36;27.37
14293;BME280;62290;59.420;17.842;2023-10-13T09:00:42;100187.34;;;25.35;27.44
14293;BME280;62290;59.420;17.842;2023-10-13T09:03:39;100184.97;;;25.32;27.43
14293;BME280;62290;59.420;17.842;2023-10-13T09:06:12;100179.56;;;25.32;27.66
14293;BME280;62290;59.420;17.842;2023-10-13T09:08:47;100179.56;;;25.32;27.55
14293;BME280;62290;59.420;17.842;2023-10-13T09:11:32;100168.28;;;25.28;27.61
14293;BME280;62290;59.420;17.842;2023-10-13T09:14:16;100173.50;;;25.30;27.38
14293;BME280;62290;59.420;17.842;2023-10-13T09:17:04;100177.03;;;25.30;27.18
14293;BME280;62290;59.420;17.842;2023-10-13T09:19:46;100179.91;;;25.29;27.17
14293;BME280;62290;59.420;17.842;2023-10-13T09:22:21;100177.22;;;25.29;27.68
14293;BME280;62290;59.420;17.842;2023-10-13T09:24:58;100179.75;;;25.30;27.15
14293;BME280;62290;59.420;17.842;2023-10-13T09:27:29;100174.34;;;25.30;27.67
14293;BME280;62290;59.420;17.842;2023-10-13T09:29:59;100175.88;;;25.33;27.12
14293;BME280;62290;59.420;17.842;2023-10-13T09:32:33;100172.69;;;25.37;27.57
14293;BME280;62290;59.420;17.842;2023-10-13T09:35:17;100164.16;;;25.42;26.93
14293;BME280;62290;59.420;17.842;2023-10-13T09:37:45;100159.44;;;25.44;27.52
14293;BME280;62290;59.420;17.842;2023-10-13T09:40:17;100147.63;;;25.45;27.44
14293;BME280;62290;59.420;17.842;2023-10-13T09:43:01;100156.97;;;25.50;27.00
14293;BME280;62290;59.420;17.842;2023-10-13T09:45:34;100153.81;;;25.55;27.19
14293;BME280;62290;59.420;17.842;2023-10-13T09:48:10;100156.88;;;25.60;27.13
14293;BME280;62290;59.420;17.842;2023-10-13T09:50:45;100153.16;;;25.61;26.80
14293;BME280;62290;59.420;17.842;2023-10-13T09:53:16;100145.75;;;25.63;27.08
14293;BME280;62290;59.420;17.842;2023-10-13T09:55:50;100137.31;;;25.66;27.09
14293;BME280;62290;59.420;17.842;2023-10-13T09:58:23;100122.97;;;25.65;27.22
14293;BME280;62290;59.420;17.842;2023-10-13T10:00:57;100136.31;;;25.67;26.78
14293;BME280;62290;59.420;17.842;2023-10-13T10:03:44;100128.22;;;25.67;27.20
14293;BME280;62290;59.420;17.842;2023-10-13T10:06:21;100122.16;;;25.65;27.27
14293;BME280;62290;59.420;17.842;2023-10-13T10:09:04;100128.72;;;25.62;27.35
14293;BME280;62290;59.420;17.842;2023-10-13T10:11:53;100121.81;;;25.60;27.05
14293;BME280;62290;59.420;17.842;2023-10-13T10:14:35;100119.41;;;25.57;27.47
14293;BME280;62290;59.420;17.842;2023-10-13T10:17:09;100123.09;;;25.56;27.46
14293;BME280;62290;59.420;17.842;2023-10-13T10:19:48;100080.84;;;25.39;27.38
14293;BME280;62290;59.420;17.842;2023-10-13T10:22:25;100111.47;;;25.55;27.38
14293;BME280;62290;59.420;17.842;2023-10-13T10:24:58;100107.25;;;25.53;27.35
14293;BME280;62290;59.420;17.842;2023-10-13T10:27:28;100110.13;;;25.51;27.55
14293;BME280;62290;59.420;17.842;2023-10-13T10:29:58;100110.13;;;25.51;27.29
14293;BME280;62290;59.420;17.842;2023-10-13T10:32:32;100096.09;;;25.48;27.37
14293;BME280;62290;59.420;17.842;2023-10-13T10:35:05;100101.16;;;25.51;27.15
14293;BME280;62290;59.420;17.842;2023-10-13T10:37:42;100098.47;;;25.51;27.32
14293;BME280;62290;59.420;17.842;2023-10-13T10:40:15;100090.91;;;25.54;27.25
14293;BME280;62290;59.420;17.842;2023-10-13T10:43:15;100088.03;;;25.56;26.96
14293;BME280;62290;59.420;17.842;2023-10-13T10:45:59;100078.94;;;25.57;27.19
14293;BME280;62290;59.420;17.842;2023-10-13T10:48:27;100071.53;;;25.59;27.17
14293;BME280;62290;59.420;17.842;2023-10-13T10:51:05;100072.19;;;25.61;27.16
14293;BME280;62290;59.420;17.842;2023-10-13T10:53:42;100050.59;;;25.53;26.83
14293;BME280;62290;59.420;17.842;2023-10-13T10:56:15;100067.47;;;25.63;26.62
14293;BME280;62290;59.420;17.842;2023-10-13T10:59:06;100063.97;;;25.62;26.80
14293;BME280;62290;59.420;17.842;2023-10-13T11:01:42;100064.78;;;25.63;26.80
14293;BME280;62290;59.420;17.842;2023-10-13T11:04:14;100048.78;;;25.61;26.74
14293;BME280;62290;59.420;17.842;2023-10-13T11:06:47;100045.22;;;25.61;26.83
14293;BME280;62290;59.420;17.842;2023-10-13T11:09:15;100036.97;;;25.62;26.59
14293;BME280;62290;59.420;17.842;2023-10-13T11:12:09;100040.50;;;25.63;26.51
14293;BME280;62290;59.420;17.842;2023-10-13T11:14:43;100011.78;;;25.46;26.60
14293;BME280;62290;59.420;17.842;2023-10-13T11:17:19;100030.53;;;25.55;26.57
14293;BME280;62290;59.420;17.842;2023-10-13T11:19:52;100015.81;;;25.50;26.62
14293;BME280;62290;59.420;17.842;2023-10-13T11:22:21;100022.94;;;25.51;26.91
14293;BME280;62290;59.420;17.842;2023-10-13T11:25:01;100013.31;;;25.48;26.72
14293;BME280;62290;59.420;17.842;2023-10-13T11:27:36;100009.09;;;25.46;26.81
14293;BME280;62290;59.420;17.842;2023-10-13T11:30:26;100004.81;;;25.43;26.65
14293;BME280;62290;59.420;17.842;2023-10-13T11:32:57;99970.53;;;25.28;26.99
14293;BME280;62290;59.420;17.842;2023-10-13T11:35:26;99975.94;;;25.28;27.06
14293;BME280;62290;59.420;17.842;2023-10-13T11:38:15;100000.94;;;25.38;26.99
14293;BME280;62290;59.420;17.842;2023-10-13T11:40:53;99986.59;;;25.37;26.70
14293;BME280;62290;59.420;17.842;2023-10-13T11:43:36;99988.59;;;25.35;26.91
14293;BME280;62290;59.420;17.842;2023-10-13T11:46:22;99988.78;;;25.34;26.73
14293;BME280;62290;59.420;17.842;2023-10-13T11:49:10;99977.16;;;25.33;27.30
14293;BME280;62290;59.420;17.842;2023-10-13T11:51:46;99982.38;;;25.35;27.14
14293;BME280;62290;59.420;17.842;2023-10-13T11:54:15;99983.06;;;25.37;26.68
14293;BME280;62290;59.420;17.842;2023-10-13T11:56:45;99974.97;;;25.37;27.10
14293;BME280;62290;59.420;17.842;2023-10-13T11:59:13;99970.41;;;25.37;26.76
14293;BME280;62290;59.420;17.842;2023-10-13T12:01:46;99957.44;;;25.41;26.63
14293;BME280;62290;59.420;17.842;2023-10-13T12:04:33;99957.44;;;25.41;27.15
14293;BME280;62290;59.420;17.842;2023-10-13T12:07:08;99949.19;;;25.42;27.10
14293;BME280;62290;59.420;17.842;2023-10-13T12:09:44;99945.66;;;25.42;27.02
14293;BME280;62290;59.420;17.842;2023-10-13T12:12:27;99950.03;;;25.43;26.70
14293;BME280;62290;59.420;17.842;2023-10-13T12:14:55;99933.84;;;25.43;26.71
14293;BME280;62290;59.420;17.842;2023-10-13T12:17:26;99931.00;;;25.44;26.68
14293;BME280;62290;59.420;17.842;2023-10-13T12:19:58;99927.09;;;25.39;26.95
14293;BME280;62290;59.420;17.842;2023-10-13T12:22:26;99920.34;;;25.43;26.65
14293;BME280;62290;59.420;17.842;2023-10-13T12:24:56;99906.88;;;25.43;26.65
14293;BME280;62290;59.420;17.842;2023-10-13T12:27:24;99911.41;;;25.42;26.93
14293;BME280;62290;59.420;17.842;2023-10-13T12:30:02;99901.66;;;25.41;26.58
14293;BME280;62290;59.420;17.842;2023-10-13T12:32:35;99898.28;;;25.39;26.58
14293;BME280;62290;59.420;17.842;2023-10-13T12:35:04;99895.72;;;25.38;26.71
14293;BME280;62290;59.420;17.842;2023-10-13T12:37:54;99884.41;;;25.34;26.90
14293;BME280;62290;59.420;17.842;2023-10-13T12:40:31;99892.69;;;25.33;26.93
14293;BME280;62290;59.420;17.842;2023-10-13T12:43:17;99870.59;;;25.29;26.88
14293;BME280;62290;59.420;17.842;2023-10-13T12:46:02;99870.09;;;25.26;26.48
14293;BME280;62290;59.420;17.842;2023-10-13T12:48:49;99859.31;;;25.26;27.00
14293;BME280;62290;59.420;17.842;2023-10-13T12:51:44;99857.09;;;25.21;26.76
14293;BME280;62290;59.420;17.842;2023-10-13T12:54:21;99847.31;;;25.20;26.72
14293;BME280;62290;59.420;17.842;2023-10-13T12:56:54;99845.78;;;25.17;26.73
14293;BME280;62290;59.420;17.842;2023-10-13T12:59:24;99827.06;;;25.16;26.81
14293;BME280;62290;59.420;17.842;2023-10-13T13:01:54;99823.56;;;25.15;26.91
14293;BME280;62290;59.420;17.842;2023-10-13T13:04:23;99823.56;;;25.15;27.01
14293;BME280;62290;59.420;17.842;2023-10-13T13:06:58;99817.31;;;25.15;26.72
14293;BME280;62290;59.420;17.842;2023-10-13T13:09:26;99808.19;;;25.16;26.82
14293;BME280;62290;59.420;17.842;2023-10-13T13:11:54;99799.13;;;25.17;26.73
14293;BME280;62290;59.420;17.842;2023-10-13T13:14:24;99788.16;;;25.18;26.69
14293;BME280;62290;59.420;17.842;2023-10-13T13:16:56;99781.09;;;25.17;26.71
14293;BME280;62290;59.420;17.842;2023-10-13T13:19:33;99774.66;;;25.18;27.05
14293;BME280;62290;59.420;17.842;2023-10-13T13:22:03;99770.31;;;25.17;26.69
14293;BME280;62290;59.420;17.842;2023-10-13T13:24:32;99769.13;;;25.20;26.98
14293;BME280;62290;59.420;17.842;2023-10-13T13:27:00;99752.09;;;25.20;26.71